createdAt,value
2024-02-24T00:00:13.165Z,99339.59
2024-02-24T00:01:15.158Z,99347.34
2024-02-24T00:02:17.222Z,99338.03
2024-02-24T00:03:21.396Z,99341.84
2024-02-24T00:04:24.766Z,99342.69
2024-02-24T00:05:27.537Z,99345.44
2024-02-24T00:06:29.576Z,99344.38
2024-02-24T00:07:31.573Z,99342.44
2024-02-24T00:08:36.659Z,99335.88
2024-02-24T00:09:38.713Z,99336.94
2024-02-24T00:10:40.781Z,99337.53
2024-02-24T00:11:42.885Z,99333.59
2024-02-24T00:12:44.924Z,99343.53
2024-02-24T00:13:46.945Z,99350.94
2024-02-24T00:14:48.986Z,99343.28
2024-02-24T00:15:52.074Z,99348.78
2024-02-24T00:16:54.073Z,99347.13
2024-02-24T00:17:56.092Z,99354.28
2024-02-24T00:19:00.713Z,99361.72
2024-02-24T00:20:02.964Z,99356.69
2024-02-24T00:21:05.208Z,99357.53
2024-02-24T00:22:07.263Z,99347.84
2024-02-24T00:23:09.303Z,99353.34
2024-02-24T00:24:11.400Z,99350.34
2024-02-24T00:25:13.423Z,99350.34
2024-02-24T00:26:15.432Z,99348.69
2024-02-24T00:27:17.457Z,99348.91
2024-02-24T00:28:19.541Z,99348.06
2024-02-24T00:29:21.570Z,99343.41
2024-02-24T00:30:26.298Z,99354.41
2024-02-24T00:31:28.260Z,99360.41
2024-02-24T00:32:30.351Z,99358.47
2024-02-24T00:33:32.393Z,99351.31
2024-02-24T00:34:37.294Z,99356.22
2024-02-24T00:35:40.516Z,99358.59
2024-02-24T00:36:42.671Z,99361.34
2024-02-24T00:37:44.628Z,99366.50
2024-02-24T00:38:46.640Z,99363.38
2024-02-24T00:39:48.663Z,99365.28
2024-02-24T00:40:50.662Z,99364.94
2024-02-24T00:41:53.579Z,99359.69
2024-02-24T00:42:55.530Z,99363.50
2024-02-24T00:43:57.514Z,99361.81
2024-02-24T00:44:59.509Z,99356.09
2024-02-24T00:46:01.649Z,99362.06
2024-02-24T00:47:03.978Z,99355.72
2024-02-24T00:48:06.374Z,99358.47
2024-02-24T00:49:10.531Z,99357.03
2024-02-24T00:50:12.523Z,99354.28
2024-02-24T00:51:14.481Z,99353.94
2024-02-24T00:52:16.461Z,99361.34
2024-02-24T00:53:18.511Z,99354.63
2024-02-24T00:54:20.507Z,99358.81
2024-02-24T00:55:22.673Z,99351.66
2024-02-24T00:56:24.655Z,99345.91
2024-02-24T00:57:26.669Z,99344.84
2024-02-24T00:58:29.211Z,99344.59
2024-02-24T00:59:31.357Z,99341.84
2024-02-24T01:00:33.327Z,99344.59
2024-02-24T01:01:35.275Z,99335.50
2024-02-24T01:02:37.373Z,99345.44
2024-02-24T01:03:39.397Z,99345.44
2024-02-24T01:04:41.456Z,99345.06
2024-02-24T01:05:43.893Z,99347.00
2024-02-24T01:06:45.972Z,99344.84
2024-02-24T01:07:48.027Z,99340.66
2024-02-24T01:08:50.096Z,99337.91
2024-02-24T01:09:52.102Z,99338.75
2024-02-24T01:10:54.122Z,99340.91
2024-02-24T01:11:56.149Z,99331.56
2024-02-24T01:12:58.143Z,99340.66
2024-02-24T01:14:00.753Z,99341.25
2024-02-24T01:15:03.177Z,99326.91
2024-02-24T01:16:05.425Z,99340.41
2024-02-24T01:17:11.688Z,99331.09
2024-02-24T01:18:13.946Z,99335.50
2024-02-24T01:19:16.112Z,99335.88
2024-02-24T01:20:18.188Z,99333.13
2024-02-24T01:21:20.194Z,99332.06
2024-02-24T01:22:22.183Z,99338.16
2024-02-24T01:23:25.720Z,99328.00
2024-02-24T01:24:27.732Z,99341.50
2024-02-24T01:25:29.700Z,99336.00
2024-02-24T01:26:31.749Z,99336.59
2024-02-24T01:27:33.770Z,99332.78
2024-02-24T01:28:37.989Z,99341.63
2024-02-24T01:29:40.094Z,99335.03
2024-02-24T01:30:42.120Z,99334.31
2024-02-24T01:31:45.949Z,99340.91
2024-02-24T01:32:48.104Z,99340.91
2024-02-24T01:33:51.337Z,99344.50
2024-02-24T01:34:53.460Z,99347.25
2024-02-24T01:35:56.226Z,99339.81
2024-02-24T01:36:58.187Z,99348.06
2024-02-24T01:38:00.170Z,99353.56
2024-02-24T01:39:02.195Z,99339.81
2024-02-24T01:40:06.411Z,99356.69
2024-02-24T01:41:08.482Z,99341.25
2024-02-24T01:42:10.592Z,99348.69
2024-02-24T01:43:28.278Z,99344.00
2024-02-24T01:44:30.367Z,99335.75
2024-02-24T01:45:32.517Z,99342.09
2024-02-24T01:46:34.525Z,99341.25
2024-02-24T01:47:36.626Z,99346.53
2024-02-24T01:48:38.867Z,99342.34
2024-02-24T01:49:41.020Z,99345.09
2024-02-24T01:50:43.082Z,99352.50
2024-02-24T01:51:45.075Z,99349.16
2024-02-24T01:52:48.356Z,99342.56
2024-02-24T01:53:50.385Z,99348.31
2024-02-24T01:54:54.853Z,99353.56
2024-02-24T01:55:56.844Z,99352.75
2024-02-24T01:56:58.835Z,99355.72
2024-02-24T01:58:03.681Z,99354.28
2024-02-24T01:59:05.828Z,99351.53
2024-02-24T02:00:11.027Z,99342.47
2024-02-24T02:01:13.091Z,99357.28
2024-02-24T02:02:17.014Z,99352.63
2024-02-24T02:03:19.030Z,99355.00
2024-02-24T02:04:21.091Z,99354.75
2024-02-24T02:05:25.766Z,99355.97
2024-02-24T02:06:30.194Z,99352.97
2024-02-24T02:07:32.386Z,99359.19
2024-02-24T02:08:34.352Z,99357.28
2024-02-24T02:09:36.312Z,99352.50
2024-02-24T02:10:48.281Z,99355.25
2024-02-24T02:11:56.702Z,99358.22
2024-02-24T02:13:05.060Z,99352.97
2024-02-24T02:14:07.180Z,99356.19
2024-02-24T02:15:09.978Z,99353.44
2024-02-24T02:16:12.036Z,99355.47
2024-02-24T02:17:14.098Z,99349.50
2024-02-24T02:18:16.259Z,99357.13
2024-02-24T02:19:18.422Z,99361.19
2024-02-24T02:20:20.480Z,99362.03
2024-02-24T02:21:22.476Z,99364.78
2024-02-24T02:22:24.840Z,99363.09
2024-02-24T02:23:26.844Z,99382.59
2024-02-24T02:24:28.892Z,99377.56
2024-02-24T02:25:30.946Z,99375.03
2024-02-24T02:26:32.959Z,99374.44
2024-02-24T02:27:34.969Z,99380.31
2024-02-24T02:28:36.960Z,99382.44
2024-02-24T02:29:39.058Z,99382.69
2024-02-24T02:30:41.104Z,99387.59
2024-02-24T02:31:43.059Z,99385.44
2024-02-24T02:32:45.534Z,99389.50
2024-02-24T02:33:47.892Z,99387.81
2024-02-24T02:34:49.938Z,99391.50
2024-02-24T02:35:52.021Z,99392.09
2024-02-24T02:36:54.079Z,99391.63
2024-02-24T02:37:56.060Z,99384.47
2024-02-24T02:38:58.028Z,99375.03
2024-02-24T02:40:03.548Z,99385.53
2024-02-24T02:41:09.453Z,99393.19
2024-02-24T02:42:11.866Z,99399.88
2024-02-24T02:43:14.017Z,99394.63
2024-02-24T02:44:16.074Z,99400.34
2024-02-24T02:45:18.091Z,99405.00
2024-02-24T02:46:20.440Z,99402.03
2024-02-24T02:47:24.182Z,99403.94
2024-02-24T02:48:26.858Z,99404.78
2024-02-24T02:49:30.495Z,99402.03
2024-02-24T02:50:32.595Z,99401.78
2024-02-24T02:51:34.655Z,99404.31
2024-02-24T02:52:36.653Z,99409.81
2024-02-24T02:53:38.707Z,99399.03
2024-02-24T02:54:40.711Z,99402.03
2024-02-24T02:55:42.740Z,99398.44
2024-02-24T02:56:45.467Z,99395.69
2024-02-24T02:57:47.986Z,99404.78
2024-02-24T02:58:49.973Z,99409.19
2024-02-24T02:59:51.968Z,99418.75
2024-02-24T03:00:55.431Z,99421.13
2024-02-24T03:02:02.626Z,99432.72
2024-02-24T03:03:04.821Z,99423.03
2024-02-24T03:04:06.874Z,99427.94
2024-02-24T03:05:09.274Z,99430.91
2024-02-24T03:06:11.435Z,99432.81
2024-02-24T03:07:13.612Z,99431.16
2024-02-24T03:08:15.600Z,99431.16
2024-02-24T03:09:17.603Z,99440.47
2024-02-24T03:10:22.447Z,99436.03
2024-02-24T03:11:24.566Z,99454.44
2024-02-24T03:12:26.909Z,99452.97
2024-02-24T03:13:28.959Z,99446.66
2024-02-24T03:14:32.031Z,99450.22
2024-02-24T03:15:35.785Z,99442.84
2024-02-24T03:16:38.085Z,99444.75
2024-02-24T03:17:40.716Z,99454.06
2024-02-24T03:18:46.322Z,99457.41
2024-02-24T03:19:48.396Z,99455.50
2024-02-24T03:20:50.564Z,99461.84
2024-02-24T03:21:52.592Z,99465.66
2024-02-24T03:22:54.622Z,99466.25
2024-02-24T03:23:56.955Z,99469.84
2024-02-24T03:24:58.898Z,99468.78
2024-02-24T03:26:00.987Z,99449.63
2024-02-24T03:27:03.003Z,99461.00
2024-02-24T03:28:07.933Z,99466.63
2024-02-24T03:29:09.965Z,99473.81
2024-02-24T03:30:12.500Z,99464.34
2024-02-24T03:31:14.624Z,99455.88
2024-02-24T03:32:16.613Z,99461.28
2024-02-24T03:33:19.467Z,99463.09
2024-02-24T03:34:21.605Z,99455.22
2024-02-24T03:35:23.727Z,99467.28
2024-02-24T03:36:25.730Z,99474.00
2024-02-24T03:37:27.711Z,99484.16
2024-02-24T03:38:29.718Z,99486.28
2024-02-24T03:39:32.407Z,99505.31
2024-02-24T03:40:34.400Z,99505.44
2024-02-24T03:41:36.620Z,99517.50
2024-02-24T03:42:38.689Z,99520.50
2024-02-24T03:43:40.654Z,99532.94
2024-02-24T03:44:42.701Z,99539.03
2024-02-24T03:45:44.740Z,99524.22
2024-02-24T03:46:46.701Z,99532.00
2024-02-24T03:47:48.898Z,99532.84
2024-02-24T03:48:53.629Z,99535.59
2024-02-24T03:49:55.662Z,99542.53
2024-02-24T03:50:58.130Z,99543.38
2024-02-24T03:52:00.108Z,99542.53
2024-02-24T03:53:02.103Z,99558.78
2024-02-24T03:54:04.166Z,99553.66
2024-02-24T03:55:06.182Z,99555.13
2024-02-24T03:56:08.546Z,99549.38
2024-02-24T03:57:10.624Z,99542.22
2024-02-24T03:58:12.914Z,99547.47
2024-02-24T03:59:14.913Z,99550.84
2024-02-24T04:00:17.235Z,99545.72
2024-02-24T04:01:19.259Z,99556.94
2024-02-24T04:02:27.295Z,99567.72
2024-02-24T04:03:29.451Z,99577.41
2024-02-24T04:04:31.463Z,99569.16
2024-02-24T04:05:33.493Z,99570.00
2024-02-24T04:06:35.574Z,99570.00
2024-02-24T04:07:37.653Z,99569.75
2024-02-24T04:08:39.697Z,99563.41
2024-02-24T04:09:41.960Z,99576.94
2024-02-24T04:10:47.161Z,99566.78
2024-02-24T04:11:50.049Z,99560.44
2024-02-24T04:12:52.145Z,99560.91
2024-02-24T04:13:54.140Z,99556.00
2024-02-24T04:14:56.159Z,99562.22
2024-02-24T04:15:58.149Z,99554.41
2024-02-24T04:17:00.223Z,99559.09
2024-02-24T04:18:02.504Z,99561.84
2024-02-24T04:19:04.615Z,99551.91
2024-02-24T04:20:09.886Z,99555.72
2024-02-24T04:21:11.923Z,99554.88
2024-02-24T04:22:13.875Z,99551.06
2024-02-24T04:23:15.985Z,99554.03
2024-02-24T04:24:18.022Z,99558.09
2024-02-24T04:25:19.983Z,99544.97
2024-02-24T04:26:22.024Z,99550.94
2024-02-24T04:27:24.070Z,99545.44
2024-02-24T04:28:26.388Z,99550.94
2024-02-24T04:29:28.426Z,99550.94
2024-02-24T04:30:30.481Z,99552.31
2024-02-24T04:31:32.493Z,99554.22
2024-02-24T04:32:39.294Z,99553.75
2024-02-24T04:33:41.390Z,99558.75
2024-02-24T04:34:43.484Z,99557.06
2024-02-24T04:35:45.641Z,99562.19
2024-02-24T04:36:47.746Z,99559.28
2024-02-24T04:37:49.705Z,99560.59
2024-02-24T04:38:51.803Z,99566.31
2024-02-24T04:39:53.771Z,99569.53
2024-02-24T04:40:55.813Z,99570.22
2024-02-24T04:41:57.863Z,99567.69
2024-02-24T04:42:59.948Z,99574.72
2024-02-24T04:44:01.907Z,99572.66
2024-02-24T04:45:04.133Z,99580.75
2024-02-24T04:46:06.133Z,99573.81
2024-02-24T04:47:08.221Z,99590.97
2024-02-24T04:48:10.467Z,99581.03
2024-02-24T04:49:12.689Z,99586.75
2024-02-24T04:50:15.481Z,99573.88
2024-02-24T04:51:17.566Z,99579.81
2024-02-24T04:52:19.549Z,99587.44
2024-02-24T04:53:21.937Z,99591.41
2024-02-24T04:54:23.991Z,99593.94
2024-02-24T04:55:26.028Z,99601.34
2024-02-24T04:56:28.054Z,99597.75
2024-02-24T04:57:30.050Z,99598.81
2024-02-24T04:58:32.022Z,99595.31
2024-02-24T04:59:34.049Z,99599.72
2024-02-24T05:00:36.056Z,99586.09
2024-02-24T05:01:38.162Z,99596.00
2024-02-24T05:02:40.244Z,99589.47
2024-02-24T05:03:42.284Z,99590.88
2024-02-24T05:04:44.294Z,99585.47
2024-02-24T05:05:46.288Z,99585.31
2024-02-24T05:06:51.302Z,99585.53
2024-02-24T05:07:53.336Z,99589.75
2024-02-24T05:08:56.015Z,99576.25
2024-02-24T05:09:58.027Z,99570.59
2024-02-24T05:11:01.611Z,99564.50
2024-02-24T05:12:03.772Z,99564.25
2024-02-24T05:13:08.540Z,99565.59
2024-02-24T05:14:10.675Z,99556.34
2024-02-24T05:15:12.705Z,99562.28
2024-02-24T05:16:15.469Z,99557.63
2024-02-24T05:17:17.523Z,99561.16
2024-02-24T05:18:19.696Z,99560.31
2024-02-24T05:19:22.537Z,99561.63
2024-02-24T05:20:24.646Z,99569.47
2024-02-24T05:21:26.692Z,99582.72
2024-02-24T05:22:28.753Z,99587.00
2024-02-24T05:23:30.774Z,99586.53
2024-02-24T05:24:32.953Z,99592.03
2024-02-24T05:25:35.340Z,99590.41
2024-02-24T05:26:37.358Z,99594.44
2024-02-24T05:27:39.373Z,99603.06
2024-02-24T05:28:41.364Z,99605.19
2024-02-24T05:29:47.374Z,99605.66
2024-02-24T05:30:49.555Z,99602.44
2024-02-24T05:31:51.542Z,99609.44
2024-02-24T05:32:57.474Z,99612.88
2024-02-24T05:34:08.573Z,99618.97
2024-02-24T05:35:10.892Z,99613.47
2024-02-24T05:36:12.896Z,99625.53
2024-02-24T05:37:15.133Z,99620.25
2024-02-24T05:38:17.234Z,99629.81
2024-02-24T05:39:19.250Z,99630.88
2024-02-24T05:40:21.241Z,99631.94
2024-02-24T05:41:23.278Z,99622.53
2024-02-24T05:42:32.769Z,99618.72
2024-02-24T05:43:34.993Z,99630.09
2024-02-24T05:44:36.996Z,99629.88
2024-02-24T05:45:39.758Z,99642.97
2024-02-24T05:46:41.776Z,99632.66
2024-02-24T05:47:43.833Z,99639.66
2024-02-24T05:48:47.028Z,99638.84
2024-02-24T05:49:49.249Z,99633.31
2024-02-24T05:50:51.529Z,99635.88
2024-02-24T05:51:54.750Z,99638.19
2024-02-24T05:52:56.794Z,99642.34
2024-02-24T05:53:58.839Z,99644.44
2024-02-24T05:55:00.984Z,99645.06
2024-02-24T05:56:02.998Z,99654.34
2024-02-24T05:57:05.900Z,99659.38
2024-02-24T05:58:07.895Z,99669.75
2024-02-24T05:59:09.877Z,99668.25
2024-02-24T06:00:12.618Z,99676.03
2024-02-24T06:01:15.506Z,99686.34
2024-02-24T06:02:17.925Z,99680.41
2024-02-24T06:03:20.492Z,99680.81
2024-02-24T06:04:22.444Z,99677.63
2024-02-24T06:05:24.440Z,99685.81
2024-02-24T06:06:27.694Z,99681.16
2024-02-24T06:07:29.892Z,99700.78
2024-02-24T06:08:33.734Z,99692.94
2024-02-24T06:09:35.795Z,99701.78
2024-02-24T06:10:38.803Z,99700.50
2024-02-24T06:11:41.005Z,99702.59
2024-02-24T06:12:43.070Z,99706.59
2024-02-24T06:13:47.354Z,99698.97
2024-02-24T06:14:49.395Z,99699.38
2024-02-24T06:15:51.438Z,99703.16
2024-02-24T06:16:53.414Z,99708.00
2024-02-24T06:17:55.514Z,99700.59
2024-02-24T06:18:58.071Z,99700.97
2024-02-24T06:20:00.124Z,99701.34
2024-02-24T06:21:02.881Z,99703.66
2024-02-24T06:22:05.024Z,99710.59
2024-02-24T06:23:07.631Z,99705.94
2024-02-24T06:24:09.739Z,99708.25
2024-02-24T06:25:11.886Z,99714.56
2024-02-24T06:26:15.619Z,99715.41
2024-02-24T06:27:17.609Z,99723.44
2024-02-24T06:28:19.634Z,99716.25
2024-02-24T06:29:21.628Z,99712.44
2024-02-24T06:30:23.653Z,99717.50
2024-02-24T06:31:25.651Z,99722.38
2024-02-24T06:32:27.809Z,99721.09
2024-02-24T06:33:29.919Z,99728.66
2024-02-24T06:34:32.004Z,99721.47
2024-02-24T06:35:34.380Z,99710.25
2024-02-24T06:36:36.555Z,99709.41
2024-02-24T06:37:40.438Z,99714.91
2024-02-24T06:38:42.640Z,99726.50
2024-02-24T06:39:44.638Z,99726.13
2024-02-24T06:40:47.021Z,99730.09
2024-02-24T06:41:49.285Z,99724.38
2024-02-24T06:42:51.407Z,99733.84
2024-02-24T06:43:53.393Z,99736.22
2024-02-24T06:44:55.427Z,99735.75
2024-02-24T06:45:59.641Z,99738.13
2024-02-24T06:47:04.378Z,99737.28
2024-02-24T06:48:10.793Z,99735.75
2024-02-24T06:49:12.987Z,99745.28
2024-02-24T06:50:15.046Z,99744.47
2024-02-24T06:51:17.064Z,99736.59
2024-02-24T06:52:19.009Z,99742.09
2024-02-24T06:53:21.117Z,99743.78
2024-02-24T06:54:23.121Z,99749.44
2024-02-24T06:55:25.447Z,99739.06
2024-02-24T06:56:27.491Z,99758.53
2024-02-24T06:57:29.530Z,99754.25
2024-02-24T06:58:31.540Z,99751.91
2024-02-24T06:59:33.522Z,99757.56
2024-02-24T07:00:36.236Z,99760.94
2024-02-24T07:01:38.264Z,99757.13
2024-02-24T07:02:43.316Z,99757.72
2024-02-24T07:03:45.344Z,99766.38
2024-02-24T07:04:47.310Z,99764.28
2024-02-24T07:05:49.463Z,99762.78
2024-02-24T07:06:54.205Z,99761.47
2024-02-24T07:07:56.486Z,99770.34
2024-02-24T07:08:58.587Z,99771.78
2024-02-24T07:10:00.857Z,99771.34
2024-02-24T07:11:02.863Z,99780.81
2024-02-24T07:12:05.304Z,99776.84
2024-02-24T07:13:07.445Z,99785.88
2024-02-24T07:14:10.840Z,99791.38
2024-02-24T07:15:13.112Z,99786.03
2024-02-24T07:16:16.842Z,99783.06
2024-02-24T07:17:18.859Z,99788.53
2024-02-24T07:18:20.930Z,99787.88
2024-02-24T07:19:22.951Z,99787.19
2024-02-24T07:20:27.299Z,99800.03
2024-02-24T07:21:29.282Z,99796.19
2024-02-24T07:22:31.352Z,99795.97
2024-02-24T07:23:33.324Z,99799.56
2024-02-24T07:24:35.265Z,99794.44
2024-02-24T07:25:41.251Z,99791.84
2024-02-24T07:26:52.273Z,99788.88
2024-02-24T07:27:54.588Z,99788.66
2024-02-24T07:28:56.584Z,99784.38
2024-02-24T07:30:01.558Z,99786.88
2024-02-24T07:31:04.361Z,99792.16
2024-02-24T07:32:06.566Z,99782.59
2024-02-24T07:33:08.688Z,99791.69
2024-02-24T07:34:11.880Z,99800.19
2024-02-24T07:35:13.983Z,99800.56
2024-02-24T07:36:16.302Z,99788.94
2024-02-24T07:37:18.710Z,99783.81
2024-02-24T07:38:21.461Z,99790.88
2024-02-24T07:39:23.461Z,99795.69
2024-02-24T07:40:25.402Z,99799.03
2024-02-24T07:41:30.169Z,99796.66
2024-02-24T07:42:32.339Z,99802.59
2024-02-24T07:43:34.427Z,99815.03
2024-02-24T07:44:36.515Z,99807.84
2024-02-24T07:45:38.534Z,99815.44
2024-02-24T07:46:40.586Z,99813.88
2024-02-24T07:47:42.604Z,99818.09
2024-02-24T07:48:44.673Z,99816.19
2024-02-24T07:49:46.895Z,99810.22
2024-02-24T07:50:49.079Z,99810.59
2024-02-24T07:51:53.803Z,99814.19
2024-02-24T07:52:55.762Z,99810.97
2024-02-24T07:53:57.934Z,99807.16
2024-02-24T07:54:59.900Z,99811.59
2024-02-24T07:56:01.934Z,99810.88
2024-02-24T07:57:03.957Z,99814.00
2024-02-24T07:58:05.937Z,99809.72
2024-02-24T07:59:07.892Z,99809.25
2024-02-24T08:00:10.435Z,99809.41
2024-02-24T08:01:12.439Z,99800.66
2024-02-24T08:02:14.451Z,99808.00
2024-02-24T08:03:16.701Z,99807.53
2024-02-24T08:04:18.689Z,99803.47
2024-02-24T08:05:22.252Z,99806.81
2024-02-24T08:06:24.261Z,99810.19
2024-02-24T08:07:26.233Z,99815.69
2024-02-24T08:08:28.305Z,99818.59
2024-02-24T08:09:30.374Z,99821.72
2024-02-24T08:10:34.873Z,99823.41
2024-02-24T08:11:42.007Z,99823.16
2024-02-24T08:12:44.422Z,99824.00
2024-02-24T08:13:47.300Z,99830.59
2024-02-24T08:14:49.447Z,99833.84
2024-02-24T08:15:54.365Z,99830.28
2024-02-24T08:16:56.341Z,99840.00
2024-02-24T08:17:58.380Z,99833.66
2024-02-24T08:19:00.710Z,99832.56
2024-02-24T08:20:03.030Z,99836.78
2024-02-24T08:21:08.296Z,99841.56
2024-02-24T08:22:10.348Z,99839.06
2024-02-24T08:23:12.330Z,99842.91
2024-02-24T08:24:20.216Z,99849.38
2024-02-24T08:25:22.216Z,99846.03
2024-02-24T08:26:24.211Z,99852.38
2024-02-24T08:27:26.200Z,99852.38
2024-02-24T08:28:28.338Z,99848.06
2024-02-24T08:29:33.052Z,99851.44
2024-02-24T08:30:35.144Z,99860.91
2024-02-24T08:31:37.758Z,99849.88
2024-02-24T08:32:39.799Z,99853.09
2024-02-24T08:33:44.935Z,99851.56
2024-02-24T08:34:47.085Z,99859.84
2024-02-24T08:35:49.240Z,99864.84
2024-02-24T08:36:52.595Z,99867.97
2024-02-24T08:37:54.658Z,99868.34
2024-02-24T08:38:58.248Z,99868.72
2024-02-24T08:40:00.351Z,99869.31
2024-02-24T08:41:02.328Z,99876.97
2024-02-24T08:42:06.918Z,99880.22
2024-02-24T08:43:09.079Z,99875.19
2024-02-24T08:44:11.175Z,99881.41
2024-02-24T08:45:13.432Z,99886.84
2024-02-24T08:46:15.563Z,99882.13
2024-02-24T08:47:17.608Z,99887.41
2024-02-24T08:48:19.979Z,99887.06
2024-02-24T08:49:22.084Z,99884.31
2024-02-24T08:50:24.520Z,99875.56
2024-02-24T08:51:29.456Z,99878.31
2024-02-24T08:52:38.170Z,99888.41
2024-02-24T08:53:45.137Z,99880.13
2024-02-24T08:54:47.106Z,99875.22
2024-02-24T08:55:49.071Z,99886.00
2024-02-24T08:56:51.104Z,99871.06
2024-02-24T08:57:53.094Z,99875.38
2024-02-24T08:58:55.074Z,99877.78
2024-02-24T08:59:57.050Z,99876.84
2024-02-24T09:00:59.618Z,99880.44
2024-02-24T09:02:01.677Z,99880.56
2024-02-24T09:03:03.706Z,99877.44
2024-02-24T09:04:06.859Z,99876.25
2024-02-24T09:05:09.020Z,99877.31
2024-02-24T09:06:11.615Z,99886.91
2024-02-24T09:07:13.952Z,99892.91
2024-02-24T09:08:16.337Z,99899.03
2024-02-24T09:09:18.309Z,99896.88
2024-02-24T09:10:20.304Z,99891.34
2024-02-24T09:11:22.309Z,99885.47
2024-02-24T09:12:24.438Z,99888.59
2024-02-24T09:13:26.972Z,99903.00
2024-02-24T09:14:29.186Z,99899.00
2024-02-24T09:15:32.463Z,99894.09
2024-02-24T09:16:34.640Z,99903.09
2024-02-24T09:17:36.741Z,99902.84
2024-02-24T09:18:38.843Z,99897.91
2024-02-24T09:19:43.997Z,99899.47
2024-02-24T09:20:46.266Z,99904.84
2024-02-24T09:21:48.446Z,99902.78
2024-02-24T09:22:50.460Z,99906.84
2024-02-24T09:23:52.531Z,99904.47
2024-02-24T09:24:54.571Z,99912.88
2024-02-24T09:25:56.650Z,99915.97
2024-02-24T09:26:58.806Z,99912.38
2024-02-24T09:28:00.850Z,99914.44
2024-02-24T09:29:02.844Z,99912.72
2024-02-24T09:30:05.037Z,99914.16
2024-02-24T09:31:07.042Z,99917.03
2024-02-24T09:32:09.005Z,99921.16
2024-02-24T09:33:13.800Z,99920.91
2024-02-24T09:34:17.228Z,99926.19
2024-02-24T09:35:19.353Z,99925.50
2024-02-24T09:36:21.354Z,99922.34
2024-02-24T09:37:23.327Z,99915.28
2024-02-24T09:38:25.365Z,99928.13
2024-02-24T09:39:27.362Z,99929.41
2024-02-24T09:40:29.595Z,99929.88
2024-02-24T09:41:31.750Z,99932.78
2024-02-24T09:42:34.855Z,99926.16
2024-02-24T09:43:36.964Z,99924.56
2024-02-24T09:44:40.018Z,99921.81
2024-02-24T09:45:44.791Z,99919.16
2024-02-24T09:46:47.090Z,99929.22
2024-02-24T09:47:49.151Z,99930.16
2024-02-24T09:48:51.293Z,99931.41
2024-02-24T09:49:53.971Z,99932.81
2024-02-24T09:50:56.051Z,99928.97
2024-02-24T09:52:03.735Z,99945.31
2024-02-24T09:53:05.775Z,99941.47
2024-02-24T09:54:07.743Z,99947.94
2024-02-24T09:55:10.032Z,99942.91
2024-02-24T09:56:12.416Z,99942.13
2024-02-24T09:57:16.964Z,99946.81
2024-02-24T09:58:19.595Z,99948.09
2024-02-24T09:59:23.550Z,99943.75
2024-02-24T10:00:25.558Z,99947.59
2024-02-24T10:01:27.578Z,99942.66
2024-02-24T10:02:29.688Z,99943.84
2024-02-24T10:03:31.729Z,99943.16
2024-02-24T10:04:35.069Z,99949.78
2024-02-24T10:05:41.261Z,99947.84
2024-02-24T10:06:43.400Z,99947.00
2024-02-24T10:07:46.622Z,99943.66
2024-02-24T10:08:48.770Z,99942.16
2024-02-24T10:09:50.846Z,99942.25
2024-02-24T10:10:53.486Z,99942.00
2024-02-24T10:11:55.580Z,99938.66
2024-02-24T10:12:58.444Z,99953.56
2024-02-24T10:14:00.409Z,99947.88
2024-02-24T10:15:02.891Z,99949.81
2024-02-24T10:16:07.317Z,99952.38
2024-02-24T10:17:09.390Z,99952.53
2024-02-24T10:18:11.530Z,99953.13
2024-02-24T10:19:13.772Z,99960.59
2024-02-24T10:20:15.917Z,99959.50
2024-02-24T10:21:18.310Z,99957.22
2024-02-24T10:22:20.369Z,99961.56
2024-02-24T10:23:22.441Z,99958.81
2024-02-24T10:24:25.167Z,99958.34
2024-02-24T10:25:27.202Z,99956.19
2024-02-24T10:26:29.320Z,99958.84
2024-02-24T10:27:31.414Z,99958.94
2024-02-24T10:28:34.156Z,99955.50
2024-02-24T10:29:38.198Z,99960.38
2024-02-24T10:30:40.723Z,99960.44
2024-02-24T10:31:42.706Z,99958.00
2024-02-24T10:32:44.792Z,99964.63
2024-02-24T10:33:46.950Z,99958.13
2024-02-24T10:34:49.064Z,99960.63
2024-02-24T10:35:56.106Z,99963.66
2024-02-24T10:36:59.243Z,99954.25
2024-02-24T10:38:17.377Z,99960.50
2024-02-24T10:39:23.361Z,99962.16
2024-02-24T10:40:25.421Z,99959.91
2024-02-24T10:41:29.259Z,99960.00
2024-02-24T10:42:33.452Z,99955.00
2024-02-24T10:43:36.137Z,99954.75
2024-02-24T10:44:38.224Z,99956.19
2024-02-24T10:45:40.277Z,99964.09
2024-02-24T10:46:42.434Z,99958.91
2024-02-24T10:47:44.448Z,99960.50
2024-02-24T10:48:47.444Z,99966.84
2024-02-24T10:49:49.591Z,99958.81
2024-02-24T10:50:51.713Z,99950.84
2024-02-24T10:51:53.778Z,99960.13
2024-02-24T10:52:55.896Z,99953.56
2024-02-24T10:53:59.462Z,99954.72
2024-02-24T10:55:02.685Z,99952.03
2024-02-24T10:56:04.913Z,99958.38
2024-02-24T10:57:07.499Z,99955.84
2024-02-24T10:58:10.688Z,99952.69
2024-02-24T10:59:12.748Z,99949.16
2024-02-24T11:00:37.758Z,99955.63
2024-02-24T11:01:48.769Z,99949.59
2024-02-24T11:02:51.792Z,99949.50
2024-02-24T11:03:53.898Z,99947.44
2024-02-24T11:04:55.906Z,99956.13
2024-02-24T11:05:58.024Z,99954.34
2024-02-24T11:07:02.364Z,99951.44
2024-02-24T11:08:05.110Z,99950.19
2024-02-24T11:09:07.299Z,99955.06
2024-02-24T11:10:35.436Z,99952.72
2024-02-24T11:11:37.624Z,99952.56
2024-02-24T11:12:42.349Z,99957.53
2024-02-24T11:13:59.468Z,99956.19
2024-02-24T11:15:09.625Z,99957.00
2024-02-24T11:16:11.824Z,99954.41
2024-02-24T11:17:14.079Z,99958.03
2024-02-24T11:18:16.640Z,99950.56
2024-02-24T11:19:44.801Z,99958.03
2024-02-24T11:20:47.277Z,99953.13
2024-02-24T11:22:06.612Z,99962.38
2024-02-24T11:23:24.071Z,99961.03
2024-02-24T11:24:32.042Z,99962.13
2024-02-24T11:25:34.040Z,99958.78
2024-02-24T11:26:37.790Z,99970.34
2024-02-24T11:27:41.938Z,99958.69
2024-02-24T11:28:45.938Z,99962.63
2024-02-24T11:29:47.935Z,99972.13
2024-02-24T11:30:54.694Z,99971.19
2024-02-24T11:32:06.143Z,99963.38
2024-02-24T11:33:36.963Z,99964.13
2024-02-24T11:34:39.250Z,99962.28
2024-02-24T11:35:41.385Z,99962.28
2024-02-24T11:36:43.410Z,99963.47
2024-02-24T11:37:46.176Z,99960.34
2024-02-24T11:38:48.191Z,99966.16
2024-02-24T11:39:50.177Z,99961.19
2024-02-24T11:41:12.369Z,99963.38
2024-02-24T11:42:15.086Z,99964.97
2024-02-24T11:43:17.640Z,99966.06
2024-02-24T11:44:22.571Z,99963.19
2024-02-24T11:45:27.119Z,99973.75
2024-02-24T11:46:29.990Z,99971.84
2024-02-24T11:47:34.119Z,99971.84
2024-02-24T11:48:36.927Z,99972.25
2024-02-24T11:49:49.961Z,99969.31
2024-02-24T11:50:52.950Z,99979.69
2024-02-24T11:51:54.961Z,99974.06
2024-02-24T11:52:57.590Z,99968.63
2024-02-24T11:53:59.914Z,99972.94
2024-02-24T11:55:01.992Z,99963.09
2024-02-24T11:56:04.069Z,99967.97
2024-02-24T11:57:06.356Z,99969.06
2024-02-24T11:58:11.003Z,99959.69
2024-02-24T11:59:13.170Z,99969.91
2024-02-24T12:00:15.577Z,99970.84
2024-02-24T12:01:17.705Z,99972.44
2024-02-24T12:02:19.748Z,99980.81
2024-02-24T12:03:23.415Z,99973.13
2024-02-24T12:04:28.569Z,99976.47
2024-02-24T12:05:30.821Z,99977.91
2024-02-24T12:06:32.920Z,99975.97
2024-02-24T12:07:40.809Z,99974.72
2024-02-24T12:08:44.236Z,99983.72
2024-02-24T12:09:47.049Z,99977.19
2024-02-24T12:10:49.898Z,99977.91
2024-02-24T12:11:51.926Z,99978.28
2024-02-24T12:12:55.022Z,99976.94
2024-02-24T12:13:57.216Z,99982.94
2024-02-24T12:14:59.224Z,99974.06
2024-02-24T12:16:01.260Z,99978.03
2024-02-24T12:17:06.322Z,99975.50
2024-02-24T12:18:11.909Z,99974.91
2024-02-24T12:19:14.674Z,99982.78